Terminal Aerodrome Forecast
Issued by NWS Pocatello, ID

Home | Current Version | Previous Version | Text Only | Print | Product List | Glossary On
Versions: 1 2 3 4 5 6 7 8 9 10 11 12 13 14 15
000
FTUS45 KPIH 182300
TAFIDA
TAF
KIDA 182331Z 1900/1924 20022G32KT P6SM FEW040 FEW110
     FM190300 20012KT P6SM SKC
     FM190700 VRB03KT P6SM SCT180
     FM192000 23010G20KT P6SM FEW050 BKN150=

USA.gov is the U.S. government's official web portal to all federal, state and local government web resources and services.